Corinthiakos — A8UL2 — position and weather

sailwx.info

Track history (hours):
 
Tides and Currents Weather Stations Pressure Air Temp Water Temp Dewpoint Dewpoint Depression Visibility Wind Speed Wind Dir Waves Ship Positions

Corinthiakos

Last reported at 2014-Dec-18 10:32 UTC. Time now 2014-Dec-23 02:17 UTC.
Position S 34°05' E 018°15'.

Length 262 m; draft 12 m.

Type: Cargo ship. MMSI: 636014516.

Date/timePositionNaut miles runAvg speedWind from/ knotsBaromVisibWave heightAir tempDewpointWater temp
2014-Dec-18 10:32S 34°05' E 018°15'26912.6
2014-Dec-17 13:09S 34°38' E 023°38'2413.5
2014-Dec-17 11:24S 34°34' E 024°07'19813.9
2014-Dec-16 21:10S 33°28' E 027°51'4415.3
2014-Dec-16 18:17S 32°55' E 028°27'20114.5
2014-Dec-16 04:28S 30°19' E 030°54'1314.2
2014-Dec-16 03:33S 30°07' E 031°01'1413.9
2014-Dec-16 02:33S 29°54' E 031°08'6 5.1
2014-Dec-16 01:27S 29°53' E 031°02'0 0.0
2014-Dec-15 23:21S 29°53' E 031°02'0 0.0
2014-Dec-15 22:33S 29°53' E 031°02'0 0.0
2014-Dec-15 21:33S 29°53' E 031°02'0 0.0
2014-Dec-15 20:30S 29°53' E 031°02'0 0.0
2014-Dec-15 19:30S 29°53' E 031°02'0 0.0
2014-Dec-15 18:30S 29°53' E 031°02'0 0.0
2014-Dec-15 17:30S 29°53' E 031°02'0 0.0
2014-Dec-15 16:30S 29°53' E 031°02'0 0.0
2014-Dec-15 15:24S 29°53' E 031°02'0 0.0
2014-Dec-15 14:30S 29°53' E 031°02'0 0.0
2014-Dec-15 13:24S 29°53' E 031°02'0 0.0
2014-Dec-15 12:30S 29°53' E 031°02'0 0.0
2014-Dec-15 11:30S 29°53' E 031°02'0 0.0
2014-Dec-15 10:30S 29°53' E 031°02'0 0.0
2014-Dec-15 09:30S 29°53' E 031°02'0 0.0
2014-Dec-15 08:30S 29°53' E 031°02'0 0.0
2014-Dec-15 07:30S 29°53' E 031°02'0 0.0
2014-Dec-15 06:30S 29°53' E 031°02'0 0.0
2014-Dec-15 05:30S 29°53' E 031°02'0 0.0
2014-Dec-15 04:30S 29°53' E 031°02'0 0.0
2014-Dec-15 03:30S 29°53' E 031°02'0 0.0
2014-Dec-15 02:30S 29°53' E 031°02'0 0.0
2014-Dec-15 01:30S 29°53' E 031°02'0 0.0
2014-Dec-15 00:30S 29°53' E 031°02'0 0.0
2014-Dec-14 23:30S 29°53' E 031°02'0 0.0
2014-Dec-14 22:30S 29°53' E 031°02'0 0.0
2014-Dec-14 21:30S 29°53' E 031°02'0 0.0
2014-Dec-14 20:30S 29°53' E 031°02'0 0.0
2014-Dec-14 19:30S 29°53' E 031°02'0 0.0
2014-Dec-14 18:34S 29°53' E 031°02'1 1.1
2014-Dec-14 17:34S 29°53' E 031°03'6 6.0
2014-Dec-14 16:33S 29°49' E 031°09'9 8.6
2014-Dec-14 15:30S 29°42' E 031°14'0 0.0
2014-Dec-14 14:31S 29°42' E 031°14'0 0.0
2014-Dec-14 13:31S 29°42' E 031°14'0 0.0
2014-Dec-14 12:31S 29°42' E 031°14'0 0.0
2014-Dec-14 11:30S 29°42' E 031°14'0 0.0
2014-Dec-14 10:31S 29°42' E 031°14'0 0.0
2014-Dec-14 09:31S 29°42' E 031°14'0 0.0
2014-Dec-14 08:30S 29°42' E 031°14'0 0.0
2014-Dec-14 07:31S 29°42' E 031°14'0 0.0
2014-Dec-14 06:31S 29°42' E 031°14'0 0.0
2014-Dec-14 05:24S 29°42' E 031°14'0 0.1
2014-Dec-14 04:30S 29°41' E 031°14'0 0.0
2014-Dec-14 03:30S 29°41' E 031°14'0 0.1
2014-Dec-14 02:31S 29°41' E 031°14'0 0.0
2014-Dec-14 01:31S 29°41' E 031°14'0 0.1
2014-Dec-14 00:30S 29°41' E 031°14'0 0.1
2014-Dec-13 23:31S 29°41' E 031°14'0 0.1
2014-Dec-13 22:30S 29°41' E 031°14'0 0.0
2014-Dec-13 21:31S 29°41' E 031°14'0 0.0
2014-Dec-13 20:30S 29°41' E 031°14'0 0.1
2014-Dec-13 19:30S 29°41' E 031°14'0 0.0
2014-Dec-13 18:30S 29°41' E 031°14'0 0.0
2014-Dec-13 17:31S 29°41' E 031°14'0 0.0
2014-Dec-13 16:30S 29°41' E 031°14'0 0.0
2014-Dec-13 15:31S 29°41' E 031°14'0 0.0
2014-Dec-13 14:31S 29°41' E 031°14'0 0.0
2014-Dec-13 13:31S 29°41' E 031°14'0 0.0
2014-Dec-13 12:31S 29°41' E 031°14'0 0.0
2014-Dec-13 11:30S 29°41' E 031°14'0 0.0
2014-Dec-13 10:31S 29°41' E 031°14'0 0.0
2014-Dec-13 09:31S 29°41' E 031°14'0 0.0
2014-Dec-13 08:30S 29°41' E 031°14'0 0.0
2014-Dec-13 07:30S 29°41' E 031°14'0 0.0
2014-Dec-13 06:31S 29°41' E 031°14'0 0.0
2014-Dec-13 05:25S 29°41' E 031°14'0 0.0
2014-Dec-13 04:31S 29°41' E 031°14'0 0.0
2014-Dec-13 03:30S 29°41' E 031°14'0 0.0
2014-Dec-13 02:30S 29°41' E 031°14'0 0.0
2014-Dec-13 01:30S 29°41' E 031°14'0 0.0
2014-Dec-13 00:31S 29°41' E 031°14'0 0.0
2014-Dec-12 23:31S 29°41' E 031°14'0 0.0
2014-Dec-12 22:30S 29°41' E 031°14'0 0.0
2014-Dec-12 21:31S 29°41' E 031°14'0 0.0
2014-Dec-12 20:31S 29°41' E 031°14'0 0.0
2014-Dec-12 19:31S 29°41' E 031°14'0 0.0
2014-Dec-12 18:25S 29°41' E 031°14'0 0.1
2014-Dec-12 17:30S 29°41' E 031°14'0 0.0
2014-Dec-12 16:30S 29°41' E 031°14'0 0.0
2014-Dec-12 15:31S 29°41' E 031°14'0 0.0
2014-Dec-12 14:30S 29°41' E 031°14'0 0.2
2014-Dec-12 13:31S 29°41' E 031°14'0 0.1
2014-Dec-12 12:31S 29°42' E 031°14'0 0.1
2014-Dec-12 11:30S 29°42' E 031°14'0 0.0
2014-Dec-12 10:30S 29°42' E 031°14'0 0.0
2014-Dec-12 09:31S 29°42' E 031°14'0 0.0
2014-Dec-12 08:24S 29°42' E 031°14'0 0.0
2014-Dec-12 07:30S 29°42' E 031°14'0 0.1
2014-Dec-12 06:24S 29°42' E 031°14'0 0.0
2014-Dec-12 05:19S 29°42' E 031°14'0 0.0
2014-Dec-12 04:30S 29°42' E 031°14'0 0.0
2014-Dec-12 03:31S 29°42' E 031°14'0 0.0
2014-Dec-12 02:25S 29°42' E 031°14'0 0.0
2014-Dec-12 01:31S 29°42' E 031°14'0 0.0
2014-Dec-12 00:31S 29°42' E 031°14'0 0.0
2014-Dec-11 23:25S 29°42' E 031°14'0 0.0
2014-Dec-11 22:31S 29°42' E 031°14'0 0.0
2014-Dec-11 21:31S 29°42' E 031°14'0 0.0
2014-Dec-11 20:31S 29°42' E 031°14'0 0.0
2014-Dec-11 19:31S 29°42' E 031°14'0 0.0
2014-Dec-11 18:30S 29°42' E 031°14'0 0.1
2014-Dec-11 17:24S 29°42' E 031°14'0 0.0
2014-Dec-11 16:31S 29°42' E 031°14'0 0.0
2014-Dec-11 15:31S 29°42' E 031°14'0 0.0
2014-Dec-11 14:31S 29°42' E 031°14'0 0.0
2014-Dec-11 13:31S 29°42' E 031°14'0 0.0
2014-Dec-11 12:31S 29°42' E 031°14'0 0.0
2014-Dec-11 11:31S 29°42' E 031°14'0 0.0
2014-Dec-11 10:31S 29°42' E 031°14'0 0.0
2014-Dec-11 09:30S 29°42' E 031°14'0 0.0
2014-Dec-11 08:31S 29°42' E 031°14'0 0.0
2014-Dec-11 07:30S 29°42' E 031°14'0 0.0
2014-Dec-11 06:25S 29°42' E 031°14'0 0.0
2014-Dec-11 05:30S 29°42' E 031°14'0 0.0
2014-Dec-11 04:24S 29°42' E 031°14'0 0.1
2014-Dec-11 03:31S 29°42' E 031°14'0 0.0
2014-Dec-11 02:30S 29°42' E 031°14'0 0.0
2014-Dec-11 01:31S 29°42' E 031°14'0 0.0
2014-Dec-11 00:31S 29°42' E 031°14'0 0.0
2014-Dec-10 23:31S 29°42' E 031°14'0 0.0
2014-Dec-10 22:30S 29°42' E 031°14'0 0.0
2014-Dec-10 21:30S 29°42' E 031°14'0 0.0
2014-Dec-10 20:30S 29°42' E 031°14'0 0.0
2014-Dec-10 19:31S 29°42' E 031°14'0 0.0
2014-Dec-10 18:31S 29°42' E 031°14'0 0.0
2014-Dec-10 17:30S 29°42' E 031°14'0 0.1
2014-Dec-10 16:31S 29°42' E 031°14'0 0.1
2014-Dec-10 15:31S 29°42' E 031°14'0 0.0
2014-Dec-10 14:31S 29°42' E 031°14'0 0.1
2014-Dec-10 13:31S 29°42' E 031°14'0 0.0
2014-Dec-10 12:25S 29°42' E 031°14'0 0.0
2014-Dec-10 11:24S 29°42' E 031°14'0 0.1
2014-Dec-10 10:30S 29°41' E 031°14'0 0.0
2014-Dec-10 09:30S 29°41' E 031°14'0 0.0
2014-Dec-10 08:31S 29°41' E 031°14'0 0.0
2014-Dec-10 07:30S 29°41' E 031°14'0 0.0
2014-Dec-10 06:31S 29°42' E 031°14'0 0.0
2014-Dec-10 05:25S 29°42' E 031°14'0 0.0
2014-Dec-10 04:31S 29°41' E 031°14'0 0.0
2014-Dec-10 03:31S 29°42' E 031°14'0 0.1
2014-Dec-10 02:31S 29°42' E 031°14'0 0.0
2014-Dec-10 01:31S 29°42' E 031°14'0 0.0
2014-Dec-10 00:30S 29°42' E 031°14'0 0.0
2014-Dec-09 23:25S 29°42' E 031°14'0 0.0
2014-Dec-09 22:31S 29°42' E 031°14'0 0.0
2014-Dec-09 21:30S 29°42' E 031°14'0 0.0
2014-Dec-09 20:30S 29°42' E 031°14'0 0.0
2014-Dec-09 19:31S 29°42' E 031°14'0 0.0
2014-Dec-09 18:31S 29°42' E 031°14'0 0.0
2014-Dec-09 17:25S 29°42' E 031°14'0 0.0
2014-Dec-09 16:30S 29°42' E 031°14'0 0.0
2014-Dec-09 15:30S 29°42' E 031°14'0 0.0
2014-Dec-09 14:24S 29°42' E 031°14'0 0.0
2014-Dec-09 13:31S 29°42' E 031°14'0 0.0
2014-Dec-09 12:31S 29°42' E 031°14'0 0.0
2014-Dec-09 11:30S 29°42' E 031°14'0 0.0
2014-Dec-09 10:31S 29°42' E 031°14'0 0.0
2014-Dec-09 09:30S 29°42' E 031°14'0 0.0
2014-Dec-09 08:31S 29°42' E 031°14'0 0.0
2014-Dec-09 07:30S 29°42' E 031°14'0 0.0
2014-Dec-09 06:31S 29°42' E 031°14'0 0.0
2014-Dec-09 05:31S 29°42' E 031°14'0 0.0
2014-Dec-09 04:25S 29°42' E 031°14'0 0.1
2014-Dec-09 03:30S 29°42' E 031°14'0 0.1
2014-Dec-09 02:30S 29°42' E 031°14'0 0.0
2014-Dec-09 01:30S 29°42' E 031°14'0 0.0
2014-Dec-09 00:31S 29°42' E 031°14'0 0.0
2014-Dec-08 23:31S 29°42' E 031°14'0 0.0
2014-Dec-08 22:30S 29°42' E 031°14'0 0.0
2014-Dec-08 21:31S 29°42' E 031°14'0 0.0
2014-Dec-08 20:31S 29°42' E 031°14'0 0.0
2014-Dec-08 19:31S 29°42' E 031°14'0 0.0
2014-Dec-08 18:31S 29°42' E 031°14'0 0.0
2014-Dec-08 17:25S 29°42' E 031°14'0 0.0
2014-Dec-08 16:30S 29°42' E 031°14'0 0.2
2014-Dec-08 15:33S 29°42' E 031°14'9 9.3
2014-Dec-08 14:33S 29°46' E 031°23'1313.1
2014-Dec-08 13:33S 29°43' E 031°38'1614.9
2014-Dec-08 12:31S 29°40' E 031°55'  
Track history (hours):
 
Tides and Currents Weather Stations Pressure Air Temp Water Temp Dewpoint Dewpoint Depression Visibility Wind Speed Wind Dir Waves Ship Positions

Corinthiakos

Last reported at 2014-Dec-18 10:32 UTC. Time now 2014-Dec-23 02:17 UTC.
Position S 34°05' E 018°15'.

Length 262 m; draft 12 m.

Type: Cargo ship. MMSI: 636014516.

Date/timePositionNaut miles runAvg speedWind from/ knotsBaromVisibWave heightAir tempDewpointWater temp
2014-Dec-18 10:32S 34°05' E 018°15'26912.6
2014-Dec-17 13:09S 34°38' E 023°38'2413.5
2014-Dec-17 11:24S 34°34' E 024°07'19813.9
2014-Dec-16 21:10S 33°28' E 027°51'4415.3
2014-Dec-16 18:17S 32°55' E 028°27'20114.5
2014-Dec-16 04:28S 30°19' E 030°54'1314.2
2014-Dec-16 03:33S 30°07' E 031°01'1413.9
2014-Dec-16 02:33S 29°54' E 031°08'6 5.1
2014-Dec-16 01:27S 29°53' E 031°02'0 0.0
2014-Dec-15 23:21S 29°53' E 031°02'0 0.0
2014-Dec-15 22:33S 29°53' E 031°02'0 0.0
2014-Dec-15 21:33S 29°53' E 031°02'0 0.0
2014-Dec-15 20:30S 29°53' E 031°02'0 0.0
2014-Dec-15 19:30S 29°53' E 031°02'0 0.0
2014-Dec-15 18:30S 29°53' E 031°02'0 0.0
2014-Dec-15 17:30S 29°53' E 031°02'0 0.0
2014-Dec-15 16:30S 29°53' E 031°02'0 0.0
2014-Dec-15 15:24S 29°53' E 031°02'0 0.0
2014-Dec-15 14:30S 29°53' E 031°02'0 0.0
2014-Dec-15 13:24S 29°53' E 031°02'0 0.0
2014-Dec-15 12:30S 29°53' E 031°02'0 0.0
2014-Dec-15 11:30S 29°53' E 031°02'0 0.0
2014-Dec-15 10:30S 29°53' E 031°02'0 0.0
2014-Dec-15 09:30S 29°53' E 031°02'0 0.0
2014-Dec-15 08:30S 29°53' E 031°02'0 0.0
2014-Dec-15 07:30S 29°53' E 031°02'0 0.0
2014-Dec-15 06:30S 29°53' E 031°02'0 0.0
2014-Dec-15 05:30S 29°53' E 031°02'0 0.0
2014-Dec-15 04:30S 29°53' E 031°02'0 0.0
2014-Dec-15 03:30S 29°53' E 031°02'0 0.0
2014-Dec-15 02:30S 29°53' E 031°02'0 0.0
2014-Dec-15 01:30S 29°53' E 031°02'0 0.0
2014-Dec-15 00:30S 29°53' E 031°02'0 0.0
2014-Dec-14 23:30S 29°53' E 031°02'0 0.0
2014-Dec-14 22:30S 29°53' E 031°02'0 0.0
2014-Dec-14 21:30S 29°53' E 031°02'0 0.0
2014-Dec-14 20:30S 29°53' E 031°02'0 0.0
2014-Dec-14 19:30S 29°53' E 031°02'0 0.0
2014-Dec-14 18:34S 29°53' E 031°02'1 1.1
2014-Dec-14 17:34S 29°53' E 031°03'6 6.0
2014-Dec-14 16:33S 29°49' E 031°09'9 8.6
2014-Dec-14 15:30S 29°42' E 031°14'0 0.0
2014-Dec-14 14:31S 29°42' E 031°14'0 0.0
2014-Dec-14 13:31S 29°42' E 031°14'0 0.0
2014-Dec-14 12:31S 29°42' E 031°14'0 0.0
2014-Dec-14 11:30S 29°42' E 031°14'0 0.0
2014-Dec-14 10:31S 29°42' E 031°14'0 0.0
2014-Dec-14 09:31S 29°42' E 031°14'0 0.0
2014-Dec-14 08:30S 29°42' E 031°14'0 0.0
2014-Dec-14 07:31S 29°42' E 031°14'0 0.0
2014-Dec-14 06:31S 29°42' E 031°14'0 0.0
2014-Dec-14 05:24S 29°42' E 031°14'0 0.1
2014-Dec-14 04:30S 29°41' E 031°14'0 0.0
2014-Dec-14 03:30S 29°41' E 031°14'0 0.1
2014-Dec-14 02:31S 29°41' E 031°14'0 0.0
2014-Dec-14 01:31S 29°41' E 031°14'0 0.1
2014-Dec-14 00:30S 29°41' E 031°14'0 0.1
2014-Dec-13 23:31S 29°41' E 031°14'0 0.1
2014-Dec-13 22:30S 29°41' E 031°14'0 0.0
2014-Dec-13 21:31S 29°41' E 031°14'0 0.0
2014-Dec-13 20:30S 29°41' E 031°14'0 0.1
2014-Dec-13 19:30S 29°41' E 031°14'0 0.0
2014-Dec-13 18:30S 29°41' E 031°14'0 0.0
2014-Dec-13 17:31S 29°41' E 031°14'0 0.0
2014-Dec-13 16:30S 29°41' E 031°14'0 0.0
2014-Dec-13 15:31S 29°41' E 031°14'0 0.0
2014-Dec-13 14:31S 29°41' E 031°14'0 0.0
2014-Dec-13 13:31S 29°41' E 031°14'0 0.0
2014-Dec-13 12:31S 29°41' E 031°14'0 0.0
2014-Dec-13 11:30S 29°41' E 031°14'0 0.0
2014-Dec-13 10:31S 29°41' E 031°14'0 0.0
2014-Dec-13 09:31S 29°41' E 031°14'0 0.0
2014-Dec-13 08:30S 29°41' E 031°14'0 0.0
2014-Dec-13 07:30S 29°41' E 031°14'0 0.0
2014-Dec-13 06:31S 29°41' E 031°14'0 0.0
2014-Dec-13 05:25S 29°41' E 031°14'0 0.0
2014-Dec-13 04:31S 29°41' E 031°14'0 0.0
2014-Dec-13 03:30S 29°41' E 031°14'0 0.0
2014-Dec-13 02:30S 29°41' E 031°14'0 0.0
2014-Dec-13 01:30S 29°41' E 031°14'0 0.0
2014-Dec-13 00:31S 29°41' E 031°14'0 0.0
2014-Dec-12 23:31S 29°41' E 031°14'0 0.0
2014-Dec-12 22:30S 29°41' E 031°14'0 0.0
2014-Dec-12 21:31S 29°41' E 031°14'0 0.0
2014-Dec-12 20:31S 29°41' E 031°14'0 0.0
2014-Dec-12 19:31S 29°41' E 031°14'0 0.0
2014-Dec-12 18:25S 29°41' E 031°14'0 0.1
2014-Dec-12 17:30S 29°41' E 031°14'0 0.0
2014-Dec-12 16:30S 29°41' E 031°14'0 0.0
2014-Dec-12 15:31S 29°41' E 031°14'0 0.0
2014-Dec-12 14:30S 29°41' E 031°14'0 0.2
2014-Dec-12 13:31S 29°41' E 031°14'0 0.1
2014-Dec-12 12:31S 29°42' E 031°14'0 0.1
2014-Dec-12 11:30S 29°42' E 031°14'0 0.0
2014-Dec-12 10:30S 29°42' E 031°14'0 0.0
2014-Dec-12 09:31S 29°42' E 031°14'0 0.0
2014-Dec-12 08:24S 29°42' E 031°14'0 0.0
2014-Dec-12 07:30S 29°42' E 031°14'0 0.1
2014-Dec-12 06:24S 29°42' E 031°14'0 0.0
2014-Dec-12 05:19S 29°42' E 031°14'0 0.0
2014-Dec-12 04:30S 29°42' E 031°14'0 0.0
2014-Dec-12 03:31S 29°42' E 031°14'0 0.0
2014-Dec-12 02:25S 29°42' E 031°14'0 0.0
2014-Dec-12 01:31S 29°42' E 031°14'0 0.0
2014-Dec-12 00:31S 29°42' E 031°14'0 0.0
2014-Dec-11 23:25S 29°42' E 031°14'0 0.0
2014-Dec-11 22:31S 29°42' E 031°14'0 0.0
2014-Dec-11 21:31S 29°42' E 031°14'0 0.0
2014-Dec-11 20:31S 29°42' E 031°14'0 0.0
2014-Dec-11 19:31S 29°42' E 031°14'0 0.0
2014-Dec-11 18:30S 29°42' E 031°14'0 0.1
2014-Dec-11 17:24S 29°42' E 031°14'0 0.0
2014-Dec-11 16:31S 29°42' E 031°14'0 0.0
2014-Dec-11 15:31S 29°42' E 031°14'0 0.0
2014-Dec-11 14:31S 29°42' E 031°14'0 0.0
2014-Dec-11 13:31S 29°42' E 031°14'0 0.0
2014-Dec-11 12:31S 29°42' E 031°14'0 0.0
2014-Dec-11 11:31S 29°42' E 031°14'0 0.0
2014-Dec-11 10:31S 29°42' E 031°14'0 0.0
2014-Dec-11 09:30S 29°42' E 031°14'0 0.0
2014-Dec-11 08:31S 29°42' E 031°14'0 0.0
2014-Dec-11 07:30S 29°42' E 031°14'0 0.0
2014-Dec-11 06:25S 29°42' E 031°14'0 0.0
2014-Dec-11 05:30S 29°42' E 031°14'0 0.0
2014-Dec-11 04:24S 29°42' E 031°14'0 0.1
2014-Dec-11 03:31S 29°42' E 031°14'0 0.0
2014-Dec-11 02:30S 29°42' E 031°14'0 0.0
2014-Dec-11 01:31S 29°42' E 031°14'0 0.0
2014-Dec-11 00:31S 29°42' E 031°14'0 0.0
2014-Dec-10 23:31S 29°42' E 031°14'0 0.0
2014-Dec-10 22:30S 29°42' E 031°14'0 0.0
2014-Dec-10 21:30S 29°42' E 031°14'0 0.0
2014-Dec-10 20:30S 29°42' E 031°14'0 0.0
2014-Dec-10 19:31S 29°42' E 031°14'0 0.0
2014-Dec-10 18:31S 29°42' E 031°14'0 0.0
2014-Dec-10 17:30S 29°42' E 031°14'0 0.1
2014-Dec-10 16:31S 29°42' E 031°14'0 0.1
2014-Dec-10 15:31S 29°42' E 031°14'0 0.0
2014-Dec-10 14:31S 29°42' E 031°14'0 0.1
2014-Dec-10 13:31S 29°42' E 031°14'0 0.0
2014-Dec-10 12:25S 29°42' E 031°14'0 0.0
2014-Dec-10 11:24S 29°42' E 031°14'0 0.1
2014-Dec-10 10:30S 29°41' E 031°14'0 0.0
2014-Dec-10 09:30S 29°41' E 031°14'0 0.0
2014-Dec-10 08:31S 29°41' E 031°14'0 0.0
2014-Dec-10 07:30S 29°41' E 031°14'0 0.0
2014-Dec-10 06:31S 29°42' E 031°14'0 0.0
2014-Dec-10 05:25S 29°42' E 031°14'0 0.0
2014-Dec-10 04:31S 29°41' E 031°14'0 0.0
2014-Dec-10 03:31S 29°42' E 031°14'0 0.1
2014-Dec-10 02:31S 29°42' E 031°14'0 0.0
2014-Dec-10 01:31S 29°42' E 031°14'0 0.0
2014-Dec-10 00:30S 29°42' E 031°14'0 0.0
2014-Dec-09 23:25S 29°42' E 031°14'0 0.0
2014-Dec-09 22:31S 29°42' E 031°14'0 0.0
2014-Dec-09 21:30S 29°42' E 031°14'0 0.0
2014-Dec-09 20:30S 29°42' E 031°14'0 0.0
2014-Dec-09 19:31S 29°42' E 031°14'0 0.0
2014-Dec-09 18:31S 29°42' E 031°14'0 0.0
2014-Dec-09 17:25S 29°42' E 031°14'0 0.0
2014-Dec-09 16:30S 29°42' E 031°14'0 0.0
2014-Dec-09 15:30S 29°42' E 031°14'0 0.0
2014-Dec-09 14:24S 29°42' E 031°14'0 0.0
2014-Dec-09 13:31S 29°42' E 031°14'0 0.0
2014-Dec-09 12:31S 29°42' E 031°14'0 0.0
2014-Dec-09 11:30S 29°42' E 031°14'0 0.0
2014-Dec-09 10:31S 29°42' E 031°14'0 0.0
2014-Dec-09 09:30S 29°42' E 031°14'0 0.0
2014-Dec-09 08:31S 29°42' E 031°14'0 0.0
2014-Dec-09 07:30S 29°42' E 031°14'0 0.0
2014-Dec-09 06:31S 29°42' E 031°14'0 0.0
2014-Dec-09 05:31S 29°42' E 031°14'0 0.0
2014-Dec-09 04:25S 29°42' E 031°14'0 0.1
2014-Dec-09 03:30S 29°42' E 031°14'0 0.1
2014-Dec-09 02:30S 29°42' E 031°14'0 0.0
2014-Dec-09 01:30S 29°42' E 031°14'0 0.0
2014-Dec-09 00:31S 29°42' E 031°14'0 0.0
2014-Dec-08 23:31S 29°42' E 031°14'0 0.0
2014-Dec-08 22:30S 29°42' E 031°14'0 0.0
2014-Dec-08 21:31S 29°42' E 031°14'0 0.0
2014-Dec-08 20:31S 29°42' E 031°14'0 0.0
2014-Dec-08 19:31S 29°42' E 031°14'0 0.0
2014-Dec-08 18:31S 29°42' E 031°14'0 0.0
2014-Dec-08 17:25S 29°42' E 031°14'0 0.0
2014-Dec-08 16:30S 29°42' E 031°14'0 0.2
2014-Dec-08 15:33S 29°42' E 031°14'9 9.3
2014-Dec-08 14:33S 29°46' E 031°23'1313.1
2014-Dec-08 13:33S 29°43' E 031°38'1614.9
2014-Dec-08 12:31S 29°40' E 031°55'  

Dump ship's entire track history